createdAt,value
2022-10-26T00:01:22.122Z,8.82
2022-10-26T00:03:49.950Z,7.00
2022-10-26T00:06:19.661Z,6.65
2022-10-26T00:08:49.648Z,6.45
2022-10-26T00:11:17.445Z,6.20
2022-10-26T00:13:46.473Z,6.88
2022-10-26T00:16:16.529Z,6.22
2022-10-26T00:18:44.554Z,5.85
2022-10-26T00:21:13.037Z,6.90
2022-10-26T00:23:40.715Z,7.45
2022-10-26T00:26:10.254Z,8.85
2022-10-26T00:28:37.943Z,8.10
2022-10-26T00:31:07.971Z,8.32
2022-10-26T00:33:36.371Z,6.50
2022-10-26T00:36:04.085Z,6.13
2022-10-26T00:38:31.739Z,6.10
2022-10-26T00:40:59.422Z,6.13
2022-10-26T00:43:40.976Z,6.20
2022-10-26T00:46:15.001Z,5.80
2022-10-26T00:48:45.738Z,6.53
2022-10-26T00:51:18.523Z,6.10
2022-10-26T00:53:46.201Z,6.35
2022-10-26T00:56:14.073Z,6.20
2022-10-26T00:58:43.559Z,6.53
2022-10-26T01:01:11.696Z,6.57
2022-10-26T01:03:39.882Z,6.10
2022-10-26T01:06:08.192Z,6.70
2022-10-26T01:08:35.987Z,7.13
2022-10-26T01:11:04.537Z,7.68
2022-10-26T01:13:35.801Z,8.57
2022-10-26T01:16:30.411Z,7.57
2022-10-26T01:19:07.170Z,7.65
2022-10-26T01:21:45.393Z,6.82
2022-10-26T01:24:24.119Z,6.97
2022-10-26T01:27:05.640Z,7.07
2022-10-26T01:30:04.392Z,8.18
2022-10-26T01:32:35.721Z,8.23
2022-10-26T01:35:07.793Z,7.32
2022-10-26T01:37:40.409Z,7.70
2022-10-26T01:40:11.906Z,6.47
2022-10-26T01:42:43.660Z,6.82
2022-10-26T01:45:13.242Z,6.83
2022-10-26T01:47:42.288Z,7.00
2022-10-26T01:50:11.404Z,7.10
2022-10-26T01:52:39.327Z,7.50
2022-10-26T01:55:28.628Z,7.28
2022-10-26T01:58:04.229Z,7.05
2022-10-26T02:00:36.975Z,7.10
2022-10-26T02:03:13.823Z,7.20
2022-10-26T02:05:55.268Z,7.10
2022-10-26T02:08:29.515Z,7.05
2022-10-26T02:11:05.195Z,6.72
2022-10-26T02:13:36.704Z,6.72
2022-10-26T02:16:15.733Z,7.13
2022-10-26T02:18:48.518Z,6.60
2022-10-26T02:21:19.025Z,7.20
2022-10-26T02:23:49.152Z,7.10
2022-10-26T02:26:19.297Z,7.00
2022-10-26T02:28:49.692Z,7.40
2022-10-26T02:31:18.611Z,7.20
2022-10-26T02:36:25.787Z,6.97
2022-10-26T02:38:54.288Z,7.07
2022-10-26T02:41:23.170Z,6.40
2022-10-26T02:43:54.777Z,6.47
2022-10-26T02:46:24.745Z,6.57
2022-10-26T02:48:53.915Z,7.05
2022-10-26T02:51:27.844Z,6.68
2022-10-26T02:53:59.153Z,6.90
2022-10-26T02:56:29.737Z,6.45
2022-10-26T02:59:01.234Z,6.88
2022-10-26T03:01:29.680Z,7.03
2022-10-26T03:03:59.872Z,6.80
2022-10-26T03:06:27.720Z,7.25
2022-10-26T03:08:55.399Z,7.45
2022-10-26T03:11:23.052Z,6.93
2022-10-26T03:13:50.745Z,7.00
2022-10-26T03:16:19.380Z,7.25
2022-10-26T03:18:46.994Z,7.43
2022-10-26T03:21:16.120Z,7.32
2022-10-26T03:23:43.741Z,7.60
2022-10-26T03:26:11.390Z,7.30
2022-10-26T03:28:39.010Z,7.07
2022-10-26T03:31:07.268Z,7.00
2022-10-26T03:33:34.979Z,7.40
2022-10-26T03:36:02.722Z,6.88
2022-10-26T03:38:31.829Z,7.53
2022-10-26T03:40:59.434Z,7.53
2022-10-26T03:43:27.067Z,7.32
2022-10-26T03:45:54.705Z,6.95
2022-10-26T03:48:22.297Z,6.47
2022-10-26T03:50:49.943Z,7.05
2022-10-26T03:53:17.623Z,7.07
2022-10-26T03:55:46.825Z,6.65
2022-10-26T03:58:14.516Z,7.28
2022-10-26T04:00:42.206Z,6.93
2022-10-26T04:03:09.870Z,7.28
2022-10-26T04:05:37.496Z,6.95
2022-10-26T04:08:05.276Z,7.25
2022-10-26T04:10:33.019Z,6.63
2022-10-26T04:13:02.301Z,6.97
2022-10-26T04:15:30.205Z,6.35
2022-10-26T04:17:58.284Z,5.60
2022-10-26T04:20:26.327Z,6.30
2022-10-26T04:23:01.072Z,5.85
2022-10-26T04:25:31.843Z,6.40
2022-10-26T04:28:02.844Z,5.82
2022-10-26T04:30:31.106Z,5.72
2022-10-26T04:32:58.738Z,5.63
2022-10-26T04:35:26.399Z,5.93
2022-10-26T04:37:58.315Z,6.03
2022-10-26T04:40:26.003Z,5.82
2022-10-26T04:42:53.788Z,5.65
2022-10-26T04:45:23.015Z,5.47
2022-10-26T04:48:00.618Z,5.82
2022-10-26T04:50:28.733Z,5.72
2022-10-26T04:52:56.375Z,5.10
2022-10-26T04:55:24.084Z,5.23
2022-10-26T04:57:54.768Z,5.82
2022-10-26T05:00:26.750Z,5.10
2022-10-26T05:03:00.077Z,5.07
2022-10-26T05:05:27.860Z,5.47
2022-10-26T05:07:55.901Z,5.00
2022-10-26T05:10:23.531Z,5.53
2022-10-26T05:12:52.292Z,4.90
2022-10-26T05:15:20.165Z,4.82
2022-10-26T05:17:49.404Z,5.10
2022-10-26T05:20:17.216Z,5.18
2022-10-26T05:22:44.850Z,5.00
2022-10-26T05:25:12.461Z,4.72
2022-10-26T05:27:40.155Z,4.95
2022-10-26T05:30:09.006Z,4.90
2022-10-26T05:32:36.663Z,5.05
2022-10-26T05:35:06.562Z,4.65
2022-10-26T05:37:34.247Z,4.87
2022-10-26T05:40:01.902Z,5.15
2022-10-26T05:42:29.659Z,5.17
2022-10-26T05:44:57.270Z,4.70
2022-10-26T05:47:24.928Z,5.20
2022-10-26T05:49:52.527Z,4.80
2022-10-26T05:52:21.590Z,4.47
2022-10-26T05:54:49.312Z,4.90
2022-10-26T05:57:17.490Z,4.63
2022-10-26T05:59:45.756Z,4.60
2022-10-26T06:02:20.451Z,4.47
2022-10-26T06:04:48.945Z,4.05
2022-10-26T06:07:18.367Z,3.97
2022-10-26T06:09:48.722Z,4.10
2022-10-26T06:12:19.604Z,4.10
2022-10-26T06:14:48.359Z,4.03
2022-10-26T06:17:28.829Z,4.30
2022-10-26T06:20:08.656Z,3.85
2022-10-26T06:22:43.864Z,4.43
2022-10-26T06:25:22.476Z,4.10
2022-10-26T06:27:55.825Z,4.00
2022-10-26T06:30:23.988Z,3.85
2022-10-26T06:33:01.169Z,3.95
2022-10-26T06:35:37.711Z,3.83
2022-10-26T06:38:09.352Z,4.43
2022-10-26T06:40:40.693Z,3.70
2022-10-26T06:43:13.401Z,3.85
2022-10-26T06:45:42.456Z,4.33
2022-10-26T06:48:11.659Z,4.13
2022-10-26T06:50:44.209Z,4.37
2022-10-26T06:53:20.083Z,4.47
2022-10-26T06:55:51.053Z,4.40
2022-10-26T06:58:20.205Z,3.90
2022-10-26T07:00:49.725Z,4.10
2022-10-26T07:03:17.831Z,4.13
2022-10-26T07:05:45.898Z,4.05
2022-10-26T07:08:13.706Z,3.92
2022-10-26T07:10:42.272Z,4.20
2022-10-26T07:13:11.874Z,3.78
2022-10-26T07:15:40.571Z,3.80
2022-10-26T07:18:09.081Z,3.65
2022-10-26T07:20:38.400Z,3.80
2022-10-26T07:23:08.028Z,3.88
2022-10-26T07:25:38.960Z,3.90
2022-10-26T07:28:07.517Z,4.38
2022-10-26T07:30:36.641Z,3.60
2022-10-26T07:33:06.787Z,3.50
2022-10-26T07:35:34.628Z,3.65
2022-10-26T07:38:02.955Z,3.90
2022-10-26T07:40:30.748Z,3.53
2022-10-26T07:42:59.218Z,3.80
2022-10-26T07:45:27.687Z,3.90
2022-10-26T07:47:56.767Z,3.70
2022-10-26T07:50:25.023Z,3.53
2022-10-26T07:52:52.887Z,3.88
2022-10-26T07:55:20.800Z,3.10
2022-10-26T07:57:51.048Z,3.30
2022-10-26T08:00:22.496Z,2.97
2022-10-26T08:02:50.192Z,3.40
2022-10-26T08:05:19.350Z,3.03
2022-10-26T08:07:47.687Z,3.20
2022-10-26T08:10:16.573Z,2.65
2022-10-26T08:12:44.892Z,3.20
2022-10-26T08:15:12.833Z,3.10
2022-10-26T08:17:40.478Z,3.05
2022-10-26T08:20:09.129Z,2.92
2022-10-26T08:22:38.153Z,3.10
2022-10-26T08:25:06.510Z,2.88
2022-10-26T08:27:34.170Z,2.60
2022-10-26T08:30:01.875Z,2.78
2022-10-26T08:32:29.558Z,2.28
2022-10-26T08:34:57.205Z,2.55
2022-10-26T08:37:25.151Z,2.30
2022-10-26T08:39:55.870Z,2.10
2022-10-26T08:42:30.357Z,2.63
2022-10-26T08:45:00.595Z,2.42
2022-10-26T08:47:30.024Z,2.00
2022-10-26T08:50:01.018Z,2.03
2022-10-26T08:52:32.834Z,2.03
2022-10-26T08:55:04.273Z,1.60
2022-10-26T08:57:36.497Z,1.63
2022-10-26T09:00:06.209Z,1.50
2022-10-26T09:02:33.992Z,1.80
2022-10-26T09:05:01.851Z,1.48
2022-10-26T09:07:38.466Z,1.48
2022-10-26T09:10:17.908Z,1.30
2022-10-26T09:12:49.844Z,1.50
2022-10-26T09:15:25.652Z,1.08
2022-10-26T09:17:59.664Z,1.23
2022-10-26T09:20:42.017Z,1.25
2022-10-26T09:23:20.792Z,0.93
2022-10-26T09:25:56.283Z,1.40
2022-10-26T09:28:24.095Z,1.10
2022-10-26T09:30:58.804Z,1.45
2022-10-26T09:33:26.892Z,1.33
2022-10-26T09:36:00.243Z,1.35
2022-10-26T09:38:30.868Z,1.20
2022-10-26T09:41:04.063Z,1.60
2022-10-26T09:43:37.277Z,1.45
2022-10-26T09:46:05.001Z,1.40
2022-10-26T09:48:36.567Z,1.60
2022-10-26T09:51:04.954Z,1.65
2022-10-26T09:53:32.745Z,1.70
2022-10-26T09:56:06.301Z,2.05
2022-10-26T09:58:37.271Z,1.70
2022-10-26T10:01:05.134Z,1.70
2022-10-26T10:03:33.460Z,1.80
2022-10-26T10:06:17.480Z,1.45
2022-10-26T10:08:46.517Z,1.92
2022-10-26T10:11:16.441Z,2.15
2022-10-26T10:13:45.410Z,1.70
2022-10-26T10:16:21.058Z,1.67
2022-10-26T10:18:54.475Z,1.92
2022-10-26T10:21:22.571Z,2.05
2022-10-26T10:23:53.306Z,1.98
2022-10-26T10:26:22.309Z,1.83
2022-10-26T10:28:58.294Z,2.00
2022-10-26T10:31:29.618Z,1.83
2022-10-26T10:33:57.252Z,1.88
2022-10-26T10:36:29.313Z,1.95
2022-10-26T10:38:57.534Z,1.60
2022-10-26T10:41:29.941Z,1.90
2022-10-26T10:44:07.261Z,1.70
2022-10-26T10:46:35.217Z,1.77
2022-10-26T10:49:04.670Z,1.43
2022-10-26T10:51:37.773Z,2.03
2022-10-26T10:54:06.295Z,1.85
2022-10-26T10:56:42.070Z,1.90
2022-10-26T10:59:21.075Z,2.13
2022-10-26T11:01:51.213Z,1.67
2022-10-26T11:04:37.346Z,1.80
2022-10-26T11:07:06.374Z,1.80
2022-10-26T11:09:37.500Z,2.20
2022-10-26T11:12:11.128Z,1.80
2022-10-26T11:14:43.289Z,1.65
2022-10-26T11:17:18.006Z,2.20
2022-10-26T11:19:49.573Z,2.03
2022-10-26T11:22:22.343Z,1.98
2022-10-26T11:24:51.716Z,1.63
2022-10-26T11:27:25.117Z,2.00
2022-10-26T11:29:56.207Z,1.77
2022-10-26T11:32:25.434Z,1.83
2022-10-26T11:34:56.901Z,1.70
2022-10-26T11:37:29.014Z,1.60
2022-10-26T11:40:03.834Z,1.60
2022-10-26T11:42:37.526Z,1.70
2022-10-26T11:45:11.467Z,2.25
2022-10-26T11:47:42.897Z,1.83
2022-10-26T11:50:17.622Z,1.58
2022-10-26T11:52:49.450Z,1.87
2022-10-26T11:55:18.347Z,1.83
2022-10-26T11:57:48.005Z,1.80
2022-10-26T12:00:18.170Z,2.40
2022-10-26T12:02:49.660Z,2.00
2022-10-26T12:05:24.539Z,1.83
2022-10-26T12:07:54.647Z,2.47
2022-10-26T12:10:31.142Z,2.08
2022-10-26T12:13:05.870Z,2.38
2022-10-26T12:16:01.761Z,2.43
2022-10-26T12:18:50.374Z,2.70
2022-10-26T12:21:18.268Z,2.90
2022-10-26T12:23:56.182Z,2.75
2022-10-26T12:26:54.499Z,2.33
2022-10-26T12:29:38.114Z,3.00
2022-10-26T12:32:29.077Z,2.80
2022-10-26T12:35:01.899Z,2.60
2022-10-26T12:37:37.866Z,3.38
2022-10-26T12:40:40.726Z,3.28
2022-10-26T12:43:36.043Z,3.13
2022-10-26T12:46:43.362Z,3.28
2022-10-26T12:49:58.749Z,3.42
2022-10-26T12:52:34.152Z,3.40
2022-10-26T12:55:25.059Z,3.03
2022-10-26T12:57:59.971Z,3.00
2022-10-26T13:00:28.711Z,3.07
2022-10-26T13:03:08.035Z,2.88
2022-10-26T13:05:58.683Z,3.08
2022-10-26T13:08:28.601Z,3.37
2022-10-26T13:11:04.682Z,3.77
2022-10-26T13:13:33.378Z,3.40
2022-10-26T13:16:01.857Z,3.37
2022-10-26T13:18:30.676Z,3.38
2022-10-26T13:21:11.560Z,3.03
2022-10-26T13:23:42.007Z,3.33
2022-10-26T13:26:12.595Z,3.50
2022-10-26T13:28:51.250Z,3.17
2022-10-26T13:31:55.704Z,3.63
2022-10-26T13:34:24.454Z,3.35
2022-10-26T13:36:55.175Z,3.50
2022-10-26T13:39:27.471Z,3.22
2022-10-26T13:41:55.751Z,3.22
2022-10-26T13:44:26.967Z,3.30
2022-10-26T13:46:59.302Z,3.00
2022-10-26T13:49:31.466Z,2.95
2022-10-26T13:52:02.542Z,3.05
2022-10-26T13:54:36.572Z,2.60
2022-10-26T13:57:14.008Z,2.80
2022-10-26T13:59:44.695Z,2.70
2022-10-26T14:02:18.544Z,2.30
2022-10-26T14:04:49.774Z,3.00
2022-10-26T14:07:22.795Z,2.85
2022-10-26T14:09:57.513Z,2.40
2022-10-26T14:12:26.086Z,2.80
2022-10-26T14:14:54.900Z,2.60
2022-10-26T14:17:25.432Z,2.50
2022-10-26T14:19:53.754Z,3.17
2022-10-26T14:22:23.888Z,3.17
2022-10-26T14:24:53.072Z,3.67
2022-10-26T14:27:23.995Z,5.57
2022-10-26T14:32:39.939Z,2.75
2022-10-26T14:35:13.161Z,2.30
2022-10-26T14:37:45.285Z,2.50
2022-10-26T14:40:17.344Z,2.60
2022-10-26T14:42:50.548Z,2.47
2022-10-26T14:45:47.237Z,2.55
2022-10-26T14:48:22.697Z,2.83
2022-10-26T14:51:07.806Z,2.60
2022-10-26T14:53:38.139Z,2.55
2022-10-26T14:56:07.237Z,2.50
2022-10-26T14:58:36.974Z,2.85
2022-10-26T15:01:27.516Z,2.55
2022-10-26T15:03:58.401Z,2.58
2022-10-26T15:06:38.227Z,2.45
2022-10-26T15:09:06.870Z,2.33
2022-10-26T15:11:35.815Z,2.10
2022-10-26T15:14:04.915Z,2.50
2022-10-26T15:16:35.648Z,2.30
2022-10-26T15:19:10.985Z,1.92
2022-10-26T15:21:41.091Z,2.35
2022-10-26T15:24:33.151Z,2.20
2022-10-26T15:27:05.366Z,2.45
2022-10-26T15:29:42.825Z,2.35
2022-10-26T15:34:14.570Z,2.00
2022-10-26T15:36:43.562Z,1.98
2022-10-26T15:39:11.568Z,2.08
2022-10-26T15:41:45.893Z,1.88
2022-10-26T15:44:16.122Z,2.35
2022-10-26T15:46:44.109Z,2.10
2022-10-26T15:49:18.720Z,2.03
2022-10-26T15:51:47.583Z,1.90
2022-10-26T15:54:15.833Z,2.47
2022-10-26T15:56:44.736Z,2.77
2022-10-26T15:59:15.496Z,2.90
2022-10-26T16:01:43.233Z,3.20
2022-10-26T16:04:12.176Z,2.55
2022-10-26T16:06:42.888Z,2.58
2022-10-26T16:09:14.287Z,2.60
2022-10-26T16:11:41.965Z,2.33
2022-10-26T16:14:10.079Z,2.65
2022-10-26T16:16:38.976Z,2.67
2022-10-26T16:19:29.283Z,2.60
2022-10-26T16:21:55.766Z,2.63
2022-10-26T16:24:23.616Z,3.85
2022-10-26T16:26:51.382Z,4.30
2022-10-26T16:29:19.423Z,3.70
2022-10-26T16:31:47.126Z,3.70
2022-10-26T16:34:15.170Z,3.28
2022-10-26T16:36:42.834Z,3.30
2022-10-26T16:39:13.181Z,3.08
2022-10-26T16:41:40.858Z,3.35
2022-10-26T16:44:08.557Z,3.28
2022-10-26T16:46:36.234Z,3.30
2022-10-26T16:49:03.874Z,3.35
2022-10-26T16:51:31.807Z,3.25
2022-10-26T16:53:59.461Z,3.60
2022-10-26T16:56:30.282Z,3.85
2022-10-26T16:58:58.489Z,4.13
2022-10-26T17:01:26.607Z,5.13
2022-10-26T17:03:54.629Z,4.18
2022-10-26T17:06:22.695Z,4.60
2022-10-26T17:08:50.334Z,5.25
2022-10-26T17:11:19.640Z,5.57
2022-10-26T17:13:49.203Z,6.60
2022-10-26T17:16:20.716Z,5.72
2022-10-26T17:18:48.914Z,5.38
2022-10-26T17:21:17.661Z,5.00
2022-10-26T17:23:45.325Z,5.20
2022-10-26T17:26:14.641Z,5.20
2022-10-26T17:28:42.485Z,5.15
2022-10-26T17:31:13.503Z,5.30
2022-10-26T17:33:42.751Z,5.15
2022-10-26T17:36:11.926Z,5.20
2022-10-26T17:38:40.608Z,4.80
2022-10-26T17:41:10.087Z,4.20
2022-10-26T17:43:39.334Z,4.43
2022-10-26T17:46:08.106Z,4.20
2022-10-26T17:48:37.316Z,4.68
2022-10-26T17:51:07.121Z,4.70
2022-10-26T17:53:34.751Z,4.40
2022-10-26T17:56:02.992Z,5.13
2022-10-26T17:58:30.678Z,5.53
2022-10-26T18:01:01.519Z,5.45
2022-10-26T18:03:29.283Z,4.47
2022-10-26T18:07:32.115Z,4.90
2022-10-26T18:10:13.903Z,5.03
2022-10-26T18:12:47.329Z,4.65
2022-10-26T18:15:15.013Z,5.20
2022-10-26T18:17:42.726Z,5.03
2022-10-26T18:20:11.124Z,6.28
2022-10-26T18:22:40.179Z,5.78
2022-10-26T18:25:08.425Z,6.65
2022-10-26T18:27:36.055Z,6.13
2022-10-26T18:30:03.747Z,5.47
2022-10-26T18:32:31.448Z,4.68
2022-10-26T18:34:59.042Z,3.87
2022-10-26T18:37:26.835Z,4.05
2022-10-26T18:39:55.926Z,4.33
2022-10-26T18:42:23.601Z,4.20
2022-10-26T18:44:51.332Z,4.32
2022-10-26T18:47:19.127Z,4.28
2022-10-26T18:49:46.773Z,4.55
2022-10-26T18:52:14.407Z,3.90
2022-10-26T18:54:42.177Z,4.75
2022-10-26T18:57:11.162Z,4.30
2022-10-26T18:59:38.826Z,4.28
2022-10-26T19:04:34.013Z,4.97
2022-10-26T19:07:01.676Z,5.72
2022-10-26T19:09:29.382Z,4.57
2022-10-26T19:11:59.006Z,4.00
2022-10-26T19:14:30.523Z,4.45
2022-10-26T19:16:58.254Z,3.97
2022-10-26T19:19:26.073Z,4.38
2022-10-26T19:21:53.967Z,3.88
2022-10-26T19:24:23.714Z,3.88
2022-10-26T19:26:52.139Z,4.13
2022-10-26T19:29:20.687Z,3.63
2022-10-26T19:31:52.660Z,4.15
2022-10-26T19:34:20.587Z,4.20
2022-10-26T19:36:48.459Z,4.45
2022-10-26T19:39:16.864Z,4.45
2022-10-26T19:41:45.583Z,4.13
2022-10-26T19:44:14.573Z,3.80
2022-10-26T19:46:43.255Z,3.50
2022-10-26T19:49:13.562Z,3.30
2022-10-26T19:51:41.225Z,3.35
2022-10-26T19:54:08.923Z,3.35
2022-10-26T19:56:37.839Z,3.28
2022-10-26T19:59:05.851Z,3.67
2022-10-26T20:01:33.741Z,3.80
2022-10-26T20:04:03.096Z,3.47
2022-10-26T20:06:32.216Z,3.63
2022-10-26T20:09:00.250Z,3.53
2022-10-26T20:11:28.073Z,3.92
2022-10-26T20:13:56.494Z,3.55
2022-10-26T20:16:24.388Z,3.38
2022-10-26T20:18:52.045Z,3.47
2022-10-26T20:21:19.658Z,3.10
2022-10-26T20:23:48.843Z,3.35
2022-10-26T20:26:19.550Z,3.50
2022-10-26T20:28:47.919Z,3.50
2022-10-26T20:31:15.847Z,3.40
2022-10-26T20:33:43.656Z,3.35
2022-10-26T20:36:11.313Z,3.80
2022-10-26T20:38:40.148Z,3.15
2022-10-26T20:41:11.730Z,3.38
2022-10-26T20:43:39.971Z,3.35
2022-10-26T20:46:08.355Z,3.33
2022-10-26T20:48:38.536Z,3.23
2022-10-26T20:51:08.417Z,2.90
2022-10-26T20:53:37.256Z,2.70
2022-10-26T20:56:07.879Z,3.53
2022-10-26T20:58:40.890Z,3.25
2022-10-26T21:01:13.568Z,3.40
2022-10-26T21:03:41.238Z,3.80
2022-10-26T21:06:11.250Z,3.88
2022-10-26T21:08:38.984Z,3.78
2022-10-26T21:11:06.940Z,3.55
2022-10-26T21:13:34.595Z,3.63
2022-10-26T21:16:06.148Z,3.47
2022-10-26T21:18:33.859Z,3.40
2022-10-26T21:21:01.839Z,3.30
2022-10-26T21:23:32.592Z,3.20
2022-10-26T21:26:00.650Z,3.33
2022-10-26T21:28:33.282Z,3.43
2022-10-26T21:31:02.601Z,3.17
2022-10-26T21:33:32.235Z,2.95
2022-10-26T21:36:00.043Z,3.15
2022-10-26T21:38:27.928Z,3.40
2022-10-26T21:41:03.611Z,3.30
2022-10-26T21:43:31.435Z,3.60
2022-10-26T21:45:59.413Z,3.15
2022-10-26T21:48:27.707Z,2.92
2022-10-26T21:50:57.134Z,3.30
2022-10-26T21:53:24.891Z,3.70
2022-10-26T21:56:00.423Z,3.28
2022-10-26T21:58:28.121Z,3.25
2022-10-26T22:00:55.870Z,3.43
2022-10-26T22:03:23.634Z,3.58
2022-10-26T22:05:54.124Z,2.80
2022-10-26T22:08:23.152Z,3.00
2022-10-26T22:10:50.919Z,2.70
2022-10-26T22:13:18.666Z,2.92
2022-10-26T22:15:46.306Z,2.63
2022-10-26T22:18:13.941Z,2.85
2022-10-26T22:20:41.591Z,3.00
2022-10-26T22:23:10.257Z,3.28
2022-10-26T22:25:39.399Z,3.20
2022-10-26T22:28:07.026Z,3.03
2022-10-26T22:30:37.565Z,3.10
2022-10-26T22:33:05.290Z,3.38
2022-10-26T22:35:32.971Z,3.17
2022-10-26T22:38:00.602Z,3.30
2022-10-26T22:40:28.327Z,3.25
2022-10-26T22:42:57.371Z,3.30
2022-10-26T22:45:25.103Z,3.33
2022-10-26T22:47:52.754Z,3.30
2022-10-26T22:50:20.371Z,3.33
2022-10-26T22:52:48.186Z,3.70
2022-10-26T22:55:16.187Z,3.43
2022-10-26T22:57:43.814Z,3.60
2022-10-26T23:00:14.543Z,3.30
2022-10-26T23:02:42.154Z,3.38
2022-10-26T23:05:10.270Z,3.50
2022-10-26T23:07:37.914Z,4.00
2022-10-26T23:10:06.256Z,3.63
2022-10-26T23:12:33.918Z,3.70
2022-10-26T23:15:01.577Z,3.80
2022-10-26T23:17:30.842Z,3.80
2022-10-26T23:19:58.566Z,3.00
2022-10-26T23:22:26.255Z,3.60
2022-10-26T23:24:53.903Z,3.50
2022-10-26T23:27:21.545Z,2.83
2022-10-26T23:29:49.168Z,3.85
2022-10-26T23:32:16.809Z,3.60
2022-10-26T23:34:45.859Z,3.45
2022-10-26T23:37:13.514Z,3.35
2022-10-26T23:39:41.166Z,3.60
2022-10-26T23:42:08.832Z,3.58
2022-10-26T23:44:36.512Z,3.60
2022-10-26T23:47:04.194Z,3.70
2022-10-26T23:49:32.269Z,3.60
2022-10-26T23:52:01.309Z,3.88
2022-10-26T23:54:28.950Z,4.20
2022-10-26T23:56:56.580Z,3.95
2022-10-26T23:59:24.221Z,3.88
